Time;durP1;ratioP1;P1;durP2;ratioP2;P2;SDS_P1;SDS_P2;PMS_P1;PMS_P2;Temp;Humidity;BMP_temperature;BMP_pressure;BME280_temperature;BME280_humidity;BME280_pressure;Samples;Min_cycle;Max_cycle;Signal;HPM_P1;HPM_P2
2023/05/04 00:01:28;;;;;;;;;;;8.96;17.17;;;;;;2671052;76;20529;-91
2023/05/04 00:04:56;;;;;;;;;;;8.96;18.33;;;;;;2670038;76;20461;-91
2023/05/04 00:08:24;;;;;;;;;;;8.97;18.37;;;;;;2671166;76;20424;-91
2023/05/04 00:11:52;;;;;;;;;;;8.90;17.69;;;;;;2672036;76;20772;-91
2023/05/04 00:15:21;;;;;;;;;;;8.89;17.55;;;;;;2671978;76;20412;-91
2023/05/04 00:18:54;;;;;;;;;;;8.85;17.54;;;;;;2672296;76;20930;-91
2023/05/04 00:22:19;;;;;;;;;;;8.82;17.50;;;;;;2672398;76;21242;-91
2023/05/04 00:25:47;;;;;;;;;;;8.76;17.07;;;;;;2672197;76;20436;-91
2023/05/04 00:29:15;;;;;;;;;;;8.74;16.96;;;;;;2672253;76;20437;-90
2023/05/04 00:32:43;;;;;;;;;;;8.68;16.76;;;;;;2672214;76;20893;-91
2023/05/04 00:36:12;;;;;;;;;;;8.63;16.29;;;;;;2672173;76;20461;-90
2023/05/04 00:39:40;;;;;;;;;;;8.59;15.94;;;;;;2672195;76;20977;-91
2023/05/04 00:43:09;;;;;;;;;;;8.53;15.90;;;;;;2672610;76;20424;-91
2023/05/04 00:46:37;;;;;;;;;;;8.46;15.97;;;;;;2671397;76;20435;-91
2023/05/04 00:50:05;;;;;;;;;;;8.42;15.84;;;;;;2670509;76;20415;-92
2023/05/04 00:53:33;;;;;;;;;;;8.38;16.23;;;;;;2670741;76;20628;-92
2023/05/04 00:57:02;;;;;;;;;;;8.39;17.24;;;;;;2669935;76;20440;-91
2023/05/04 01:00:30;;;;;;;;;;;8.38;17.44;;;;;;2670825;76;20289;-90
2023/05/04 01:03:58;;;;;;;;;;;8.39;17.59;;;;;;2670531;76;20439;-90
2023/05/04 01:07:26;;;;;;;;;;;8.39;17.44;;;;;;2671823;76;20439;-91
2023/05/04 01:10:55;;;;;;;;;;;8.35;17.16;;;;;;2671494;76;20509;-91
2023/05/04 01:14:23;;;;;;;;;;;8.35;17.22;;;;;;2670311;76;20980;-90
2023/05/04 01:17:51;;;;;;;;;;;8.32;17.09;;;;;;2671060;76;20962;-91
2023/05/04 01:21:19;;;;;;;;;;;8.29;17.38;;;;;;2671959;76;20411;-90
2023/05/04 01:24:47;;;;;;;;;;;8.27;17.62;;;;;;2671583;76;20429;-90
2023/05/04 01:28:15;;;;;;;;;;;8.22;17.41;;;;;;2671396;76;21360;-91
2023/05/04 01:31:43;;;;;;;;;;;8.19;17.30;;;;;;2671891;76;20949;-91
2023/05/04 01:35:12;;;;;;;;;;;8.16;17.86;;;;;;2672036;76;20327;-91
2023/05/04 01:38:40;;;;;;;;;;;8.14;18.31;;;;;;2671314;76;20884;-91
2023/05/04 01:42:08;;;;;;;;;;;8.12;18.34;;;;;;2670276;76;20467;-91
2023/05/04 01:45:36;;;;;;;;;;;8.09;18.27;;;;;;2671712;76;20479;-92
2023/05/04 01:49:05;;;;;;;;;;;8.07;18.16;;;;;;2671704;76;20464;-92
2023/05/04 01:52:34;;;;;;;;;;;8.06;18.27;;;;;;2671424;76;20458;-92
2023/05/04 01:56:02;;;;;;;;;;;8.04;18.37;;;;;;2671177;76;20471;-92
2023/05/04 01:59:30;;;;;;;;;;;8.00;18.48;;;;;;2671300;76;20912;-92
2023/05/04 02:02:58;;;;;;;;;;;7.99;18.46;;;;;;2670988;76;20295;-91
2023/05/04 02:06:26;;;;;;;;;;;7.97;19.09;;;;;;2671248;76;20514;-90
2023/05/04 02:09:54;;;;;;;;;;;7.99;19.25;;;;;;2671164;76;20829;-91
2023/05/04 02:13:23;;;;;;;;;;;7.92;19.39;;;;;;2671050;76;20725;-91
2023/05/04 02:16:51;;;;;;;;;;;7.90;19.48;;;;;;2671445;76;20437;-91
2023/05/04 02:20:19;;;;;;;;;;;7.88;19.48;;;;;;2671887;76;20903;-90
2023/05/04 02:23:47;;;;;;;;;;;7.85;19.62;;;;;;2671881;76;20471;-90
2023/05/04 02:27:15;;;;;;;;;;;7.83;19.50;;;;;;2673603;76;20450;-90
2023/05/04 02:30:43;;;;;;;;;;;7.82;19.63;;;;;;2672116;76;20786;-90
2023/05/04 02:34:11;;;;;;;;;;;7.78;20.12;;;;;;2671160;76;20420;-90
2023/05/04 02:37:40;;;;;;;;;;;7.74;20.79;;;;;;2671707;76;20454;-89
2023/05/04 02:41:08;;;;;;;;;;;7.73;20.75;;;;;;2671217;76;20462;-90
2023/05/04 02:44:36;;;;;;;;;;;7.71;21.18;;;;;;2671044;76;20429;-89
2023/05/04 02:48:04;;;;;;;;;;;7.72;21.24;;;;;;2670650;76;20463;-89
2023/05/04 02:51:32;;;;;;;;;;;7.75;21.16;;;;;;2670310;76;20474;-91
2023/05/04 02:55:01;;;;;;;;;;;7.72;21.26;;;;;;2670306;76;20959;-89
2023/05/04 02:58:29;;;;;;;;;;;7.73;21.22;;;;;;2669824;76;20309;-90
2023/05/04 03:01:57;;;;;;;;;;;7.70;20.93;;;;;;2669270;76;20441;-89
2023/05/04 03:05:25;;;;;;;;;;;7.71;21.01;;;;;;2669492;76;21262;-90
2023/05/04 03:08:53;;;;;;;;;;;7.64;20.98;;;;;;2670537;76;20441;-89
2023/05/04 03:12:21;;;;;;;;;;;7.63;20.97;;;;;;2669242;76;20332;-89
2023/05/04 03:15:49;;;;;;;;;;;7.60;20.96;;;;;;2669340;76;20428;-89
2023/05/04 03:19:18;;;;;;;;;;;7.58;20.86;;;;;;2669429;76;20441;-89
2023/05/04 03:22:46;;;;;;;;;;;7.56;20.82;;;;;;2670180;76;20464;-91
2023/05/04 03:26:15;;;;;;;;;;;7.56;20.82;;;;;;2670549;76;20906;-91
2023/05/04 03:29:43;;;;;;;;;;;7.54;20.74;;;;;;2670844;76;20431;-90
2023/05/04 03:33:11;;;;;;;;;;;7.53;20.79;;;;;;2670203;76;20409;-91
2023/05/04 03:36:39;;;;;;;;;;;7.48;20.63;;;;;;2670460;76;20442;-90
2023/05/04 03:40:07;;;;;;;;;;;7.48;20.76;;;;;;2671001;76;20488;-89
2023/05/04 03:43:35;;;;;;;;;;;7.48;21.00;;;;;;2670098;76;20420;-91
2023/05/04 03:47:03;;;;;;;;;;;7.47;20.85;;;;;;2669952;76;21167;-91
2023/05/04 03:50:32;;;;;;;;;;;7.44;21.07;;;;;;2671888;76;20893;-90
2023/05/04 03:54:00;;;;;;;;;;;7.46;21.23;;;;;;2671715;76;20470;-90
2023/05/04 03:57:28;;;;;;;;;;;7.46;21.29;;;;;;2671840;76;20477;-90
2023/05/04 04:00:56;;;;;;;;;;;7.45;21.79;;;;;;2670882;76;20425;-90
2023/05/04 04:04:24;;;;;;;;;;;7.55;21.48;;;;;;2669678;76;20442;-91
2023/05/04 04:07:52;;;;;;;;;;;7.59;21.21;;;;;;2671010;76;20413;-90
2023/05/04 04:11:20;;;;;;;;;;;7.60;21.31;;;;;;2670851;76;20417;-88
2023/05/04 04:14:50;;;;;;;;;;;7.67;20.95;;;;;;2670472;76;20447;-90
2023/05/04 04:18:18;;;;;;;;;;;7.71;20.84;;;;;;2669254;76;20459;-90
2023/05/04 04:21:46;;;;;;;;;;;7.73;20.93;;;;;;2669956;76;20424;-90
2023/05/04 04:25:14;;;;;;;;;;;7.79;20.99;;;;;;2669663;76;20426;-91
2023/05/04 04:28:45;;;;;;;;;;;7.86;21.02;;;;;;2670039;76;20896;-91
2023/05/04 04:32:13;;;;;;;;;;;7.96;20.99;;;;;;2669927;76;20500;-89
2023/05/04 04:35:41;;;;;;;;;;;8.05;20.41;;;;;;2669198;76;20421;-90
2023/05/04 04:39:09;;;;;;;;;;;8.14;20.15;;;;;;2671354;76;20436;-91
2023/05/04 04:42:37;;;;;;;;;;;8.28;20.22;;;;;;2669856;76;20437;-91
2023/05/04 04:46:07;;;;;;;;;;;8.43;20.55;;;;;;2669732;76;20497;-91
2023/05/04 04:49:35;;;;;;;;;;;8.59;20.63;;;;;;2669531;76;20436;-90
2023/05/04 04:53:03;;;;;;;;;;;8.73;20.83;;;;;;2670295;76;20421;-90
2023/05/04 04:56:36;;;;;;;;;;;8.87;21.39;;;;;;2669154;76;20472;-91
2023/05/04 05:00:01;;;;;;;;;;;9.04;21.54;;;;;;2668860;76;20464;-92
2023/05/04 05:03:32;;;;;;;;;;;9.16;21.71;;;;;;2669211;76;20492;-92
2023/05/04 05:07:00;;;;;;;;;;;9.31;21.76;;;;;;2669579;76;20612;-92
2023/05/04 05:10:29;;;;;;;;;;;9.38;22.02;;;;;;2670411;76;20429;-91
2023/05/04 05:13:58;;;;;;;;;;;9.50;22.39;;;;;;2670214;76;20508;-91
2023/05/04 05:17:26;;;;;;;;;;;9.59;22.68;;;;;;2670615;76;21110;-91
2023/05/04 05:20:55;;;;;;;;;;;9.71;22.82;;;;;;2671477;76;20547;-91
2023/05/04 05:24:23;;;;;;;;;;;9.84;22.87;;;;;;2669354;76;20425;-91
2023/05/04 05:27:51;;;;;;;;;;;9.97;23.08;;;;;;2670471;76;20446;-89
2023/05/04 05:31:19;;;;;;;;;;;10.14;23.34;;;;;;2669781;76;20427;-92
2023/05/04 05:34:48;;;;;;;;;;;10.22;23.30;;;;;;2668583;76;20464;-91
2023/05/04 05:38:16;;;;;;;;;;;10.33;23.11;;;;;;2669314;76;20445;-92
2023/05/04 05:41:44;;;;;;;;;;;10.28;23.13;;;;;;2668925;76;21342;-92
2023/05/04 05:45:15;;;;;;;;;;;10.40;23.23;;;;;;2669296;76;20947;-92
2023/05/04 05:48:43;;;;;;;;;;;10.46;23.21;;;;;;2669400;76;20433;-91
2023/05/04 05:52:11;;;;;;;;;;;10.62;23.30;;;;;;2669216;76;21248;-91
2023/05/04 05:55:39;;;;;;;;;;;10.69;23.33;;;;;;2669366;76;20908;-92
2023/05/04 05:59:08;;;;;;;;;;;10.78;23.46;;;;;;2670766;76;20346;-91
2023/05/04 06:02:36;;;;;;;;;;;10.85;23.24;;;;;;2670203;76;20458;-92
2023/05/04 06:06:04;;;;;;;;;;;10.88;23.16;;;;;;2670522;76;21071;-91
2023/05/04 06:09:32;;;;;;;;;;;11.07;23.37;;;;;;2670230;76;20484;-91
2023/05/04 06:13:00;;;;;;;;;;;11.28;23.17;;;;;;2669266;76;20422;-92
2023/05/04 06:16:31;;;;;;;;;;;11.39;22.82;;;;;;2669202;76;21164;-92
2023/05/04 06:20:00;;;;;;;;;;;11.55;22.81;;;;;;2670196;76;20449;-91
2023/05/04 06:23:28;;;;;;;;;;;11.57;22.43;;;;;;2669633;76;20438;-92
2023/05/04 06:26:57;;;;;;;;;;;11.64;22.40;;;;;;2667552;76;20482;-91
2023/05/04 06:30:25;;;;;;;;;;;11.70;22.27;;;;;;2669463;76;20456;-89
2023/05/04 06:33:53;;;;;;;;;;;11.81;22.21;;;;;;2669180;76;20904;-89
2023/05/04 06:37:22;;;;;;;;;;;11.99;22.47;;;;;;2667988;76;20983;-90
2023/05/04 06:40:50;;;;;;;;;;;12.07;22.05;;;;;;2667767;76;20436;-90
2023/05/04 06:44:18;;;;;;;;;;;12.16;21.80;;;;;;2668766;76;20446;-90
2023/05/04 06:47:46;;;;;;;;;;;12.38;21.73;;;;;;2668724;76;21354;-90
2023/05/04 06:51:15;;;;;;;;;;;12.62;21.70;;;;;;2668389;76;20449;-90
2023/05/04 06:54:43;;;;;;;;;;;12.75;21.10;;;;;;2668686;76;20450;-90
2023/05/04 06:58:11;;;;;;;;;;;12.94;21.01;;;;;;2668484;76;20581;-90
2023/05/04 07:01:40;;;;;;;;;;;13.17;20.97;;;;;;2669417;76;20430;-90
2023/05/04 07:05:08;;;;;;;;;;;13.30;20.31;;;;;;2669078;76;20418;-90
2023/05/04 07:08:36;;;;;;;;;;;13.52;20.39;;;;;;2669250;76;20422;-90
2023/05/04 07:12:04;;;;;;;;;;;13.61;19.02;;;;;;2668586;76;20465;-90
2023/05/04 07:15:35;;;;;;;;;;;13.73;17.55;;;;;;2668470;76;20433;-90
2023/05/04 07:19:03;;;;;;;;;;;14.08;17.38;;;;;;2669441;76;20880;-88
2023/05/04 07:22:31;;;;;;;;;;;14.28;16.67;;;;;;2669237;76;20872;-90
2023/05/04 07:26:00;;;;;;;;;;;14.20;14.48;;;;;;2668341;76;20443;-91
2023/05/04 07:29:28;;;;;;;;;;;14.38;13.79;;;;;;2669185;76;21080;-90
2023/05/04 07:32:56;;;;;;;;;;;14.51;13.10;;;;;;2668478;76;20459;-91
2023/05/04 07:36:25;;;;;;;;;;;14.85;13.75;;;;;;2669364;76;20422;-90
2023/05/04 07:39:53;;;;;;;;;;;15.01;13.23;;;;;;2669517;76;20430;-90
2023/05/04 07:43:21;;;;;;;;;;;15.17;12.10;;;;;;2667656;76;21041;-90
2023/05/04 07:46:49;;;;;;;;;;;15.27;10.74;;;;;;2669277;76;20436;-91
2023/05/04 07:50:18;;;;;;;;;;;15.43;11.23;;;;;;2669053;76;20459;-90
2023/05/04 07:53:46;;;;;;;;;;;15.49;11.85;;;;;;2668611;76;20677;-91
2023/05/04 07:57:14;;;;;;;;;;;15.41;11.70;;;;;;2667547;76;20999;-90
2023/05/04 08:00:42;;;;;;;;;;;15.45;11.76;;;;;;2669393;76;20468;-91
2023/05/04 08:04:10;;;;;;;;;;;15.45;11.26;;;;;;2669157;76;20550;-91
2023/05/04 08:07:38;;;;;;;;;;;15.53;10.57;;;;;;2668359;76;20932;-90
2023/05/04 08:11:06;;;;;;;;;;;15.55;10.76;;;;;;2668850;76;20479;-91
2023/05/04 08:14:34;;;;;;;;;;;15.48;11.20;;;;;;2668524;76;20758;-91
2023/05/04 08:18:03;;;;;;;;;;;15.47;11.87;;;;;;2668822;76;21002;-91
2023/05/04 08:21:31;;;;;;;;;;;15.32;12.39;;;;;;2668761;76;20425;-90
2023/05/04 08:24:59;;;;;;;;;;;15.25;11.70;;;;;;2668234;76;20396;-90
2023/05/04 08:28:27;;;;;;;;;;;15.18;11.19;;;;;;2668058;76;20915;-91
2023/05/04 08:31:56;;;;;;;;;;;15.27;10.49;;;;;;2668673;76;21152;-91
2023/05/04 08:35:26;;;;;;;;;;;15.22;9.11;;;;;;2668549;76;20436;-91
2023/05/04 08:38:54;;;;;;;;;;;15.39;8.87;;;;;;2669083;76;20471;-91
2023/05/04 08:42:23;;;;;;;;;;;15.56;8.88;;;;;;2668334;76;20452;-91
2023/05/04 08:45:54;;;;;;;;;;;15.58;8.32;;;;;;2669500;76;20957;-91
2023/05/04 08:49:22;;;;;;;;;;;15.51;7.86;;;;;;2667709;76;20891;-91
2023/05/04 08:52:51;;;;;;;;;;;15.66;8.17;;;;;;2669531;76;20338;-90
2023/05/04 08:56:19;;;;;;;;;;;15.65;6.78;;;;;;2668352;76;20947;-91
2023/05/04 08:59:47;;;;;;;;;;;15.71;6.70;;;;;;2669205;76;20907;-90
2023/05/04 09:03:15;;;;;;;;;;;15.82;6.95;;;;;;2669119;76;20490;-90
2023/05/04 09:06:43;;;;;;;;;;;15.88;6.51;;;;;;2670028;76;20514;-91
2023/05/04 09:10:11;;;;;;;;;;;16.04;7.12;;;;;;2669478;76;20327;-91
2023/05/04 09:13:41;;;;;;;;;;;16.11;6.69;;;;;;2668730;76;20475;-91
2023/05/04 09:17:09;;;;;;;;;;;16.28;7.20;;;;;;2668875;76;20405;-91
2023/05/04 09:20:37;;;;;;;;;;;16.26;6.51;;;;;;2668176;76;20427;-90
2023/05/04 09:24:06;;;;;;;;;;;16.33;5.42;;;;;;2669344;76;20447;-91
2023/05/04 09:27:34;;;;;;;;;;;16.46;5.23;;;;;;2669665;76;20470;-91
2023/05/04 09:31:02;;;;;;;;;;;16.49;4.99;;;;;;2670691;76;21042;-90
2023/05/04 09:34:32;;;;;;;;;;;16.44;4.41;;;;;;2670259;76;20440;-91
2023/05/04 09:38:00;;;;;;;;;;;16.56;4.76;;;;;;2669616;76;20493;-91
2023/05/04 09:41:28;;;;;;;;;;;16.57;4.13;;;;;;2670274;76;20451;-90
2023/05/04 09:44:57;;;;;;;;;;;16.69;4.63;;;;;;2669331;76;20430;-90
2023/05/04 09:48:27;;;;;;;;;;;16.67;3.19;;;;;;2669058;76;20438;-89
2023/05/04 09:51:55;;;;;;;;;;;16.74;2.59;;;;;;2668858;76;20499;-90
2023/05/04 09:55:23;;;;;;;;;;;16.86;2.65;;;;;;2668888;76;20461;-90
2023/05/04 09:58:51;;;;;;;;;;;17.01;1.78;;;;;;2669101;76;20949;-91
2023/05/04 10:02:19;;;;;;;;;;;16.95;1.55;;;;;;2668836;76;20846;-91
2023/05/04 10:05:47;;;;;;;;;;;16.96;1.80;;;;;;2669557;76;20440;-91
2023/05/04 10:09:16;;;;;;;;;;;17.06;2.02;;;;;;2668496;76;20447;-91
2023/05/04 10:12:44;;;;;;;;;;;17.09;2.16;;;;;;2668962;76;20562;-91
2023/05/04 10:16:13;;;;;;;;;;;17.14;1.61;;;;;;2669107;76;20451;-91
2023/05/04 10:19:41;;;;;;;;;;;17.09;1.56;;;;;;2669516;76;20447;-90
2023/05/04 10:23:09;;;;;;;;;;;17.24;0.45;;;;;;2669544;76;20457;-90
2023/05/04 10:26:37;;;;;;;;;;;17.33;0.18;;;;;;2669573;76;20444;-91
2023/05/04 10:30:06;;;;;;;;;;;17.46;0.32;;;;;;2667992;76;20470;-91
2023/05/04 10:33:34;;;;;;;;;;;17.58;0.98;;;;;;2669412;76;20419;-91
2023/05/04 10:37:05;;;;;;;;;;;17.63;0.68;;;;;;2669454;76;20472;-91
2023/05/04 10:40:33;;;;;;;;;;;17.60;0.30;;;;;;2668958;76;20431;-90
2023/05/04 10:44:01;;;;;;;;;;;17.68;-0.77;;;;;;2669450;76;20417;-91
2023/05/04 10:47:32;;;;;;;;;;;17.67;-1.89;;;;;;2669032;76;20320;-92
2023/05/04 10:51:00;;;;;;;;;;;17.72;-3.27;;;;;;2668244;76;20485;-91
2023/05/04 10:54:29;;;;;;;;;;;17.75;-2.58;;;;;;2668627;76;20434;-91
2023/05/04 10:57:57;;;;;;;;;;;17.74;-2.61;;;;;;2668685;76;20421;-91
2023/05/04 11:01:25;;;;;;;;;;;17.85;-1.65;;;;;;2667901;76;20555;-91
2023/05/04 11:04:53;;;;;;;;;;;17.92;-3.68;;;;;;2669482;76;20430;-91
2023/05/04 11:08:22;;;;;;;;;;;17.93;-4.12;;;;;;2668671;76;20454;-91
2023/05/04 11:11:51;;;;;;;;;;;17.97;-3.70;;;;;;2668449;76;21007;-91
2023/05/04 11:15:20;;;;;;;;;;;18.05;-3.59;;;;;;2668047;76;20461;-91
2023/05/04 11:18:48;;;;;;;;;;;18.07;-4.37;;;;;;2668529;76;20454;-90
2023/05/04 11:22:16;;;;;;;;;;;18.06;-3.60;;;;;;2668464;76;20473;-91
2023/05/04 11:25:44;;;;;;;;;;;18.15;-3.70;;;;;;2668576;76;20964;-91
2023/05/04 11:29:15;;;;;;;;;;;18.17;-3.70;;;;;;2669308;76;20454;-90
2023/05/04 11:32:45;;;;;;;;;;;18.20;-5.97;;;;;;2668972;76;20438;-92
2023/05/04 11:36:13;;;;;;;;;;;18.20;117.75;;;;;;2669146;76;20320;-91
2023/05/04 11:39:41;;;;;;;;;;;18.37;117.83;;;;;;2668417;76;20775;-91
2023/05/04 11:43:09;;;;;;;;;;;18.47;117.71;;;;;;2669145;76;20483;-89
2023/05/04 11:46:37;;;;;;;;;;;18.46;117.81;;;;;;2666841;76;20421;-89
2023/05/04 11:50:05;;;;;;;;;;;18.56;116.50;;;;;;2667531;76;20514;-89
2023/05/04 11:53:33;;;;;;;;;;;18.57;115.71;;;;;;2668647;76;20421;-91
2023/05/04 11:57:02;;;;;;;;;;;18.67;116.43;;;;;;2666542;76;20949;-91
2023/05/04 12:00:36;;;;;;;;;;;18.74;115.79;;;;;;2668919;76;20600;-91
2023/05/04 12:04:04;;;;;;;;;;;18.79;113.74;;;;;;2668053;76;20447;-90
2023/05/04 12:07:32;;;;;;;;;;;18.74;113.42;;;;;;2667630;76;20437;-90
2023/05/04 12:11:01;;;;;;;;;;;18.76;112.20;;;;;;2666992;76;20421;-91
2023/05/04 12:14:32;;;;;;;;;;;18.98;112.80;;;;;;2667438;76;21148;-89
2023/05/04 12:18:00;;;;;;;;;;;19.01;112.45;;;;;;2668072;76;20961;-89
2023/05/04 12:21:28;;;;;;;;;;;19.07;112.20;;;;;;2669758;76;20501;-89
2023/05/04 12:24:57;;;;;;;;;;;19.17;112.14;;;;;;2670145;76;20436;-89
2023/05/04 12:28:26;;;;;;;;;;;19.33;112.66;;;;;;2670563;76;21239;-89
2023/05/04 12:31:54;;;;;;;;;;;19.40;111.45;;;;;;2669136;76;20454;-89
2023/05/04 12:35:22;;;;;;;;;;;19.58;111.63;;;;;;2669071;76;20432;-92
2023/05/04 12:38:51;;;;;;;;;;;19.70;111.11;;;;;;2668886;76;20440;-93
2023/05/04 12:42:19;;;;;;;;;;;19.88;109.94;;;;;;2671010;76;20405;-88
2023/05/04 12:45:47;;;;;;;;;;;20.06;109.33;;;;;;2671045;76;20908;-92
2023/05/04 12:49:15;;;;;;;;;;;20.37;110.36;;;;;;2671396;76;20471;-92
2023/05/04 12:52:46;;;;;;;;;;;20.47;110.84;;;;;;2671324;76;20433;-92
2023/05/04 12:56:13;;;;;;;;;;;20.61;107.92;;;;;;2671419;76;20889;-92
2023/05/04 12:59:44;;;;;;;;;;;20.87;108.63;;;;;;2670073;76;20454;-88
2023/05/04 13:03:13;;;;;;;;;;;21.13;108.59;;;;;;2670032;76;20996;-89
2023/05/04 13:06:41;;;;;;;;;;;21.28;108.48;;;;;;2670015;76;20423;-92
2023/05/04 13:10:10;;;;;;;;;;;21.40;107.27;;;;;;2669728;76;20423;-93
2023/05/04 13:13:49;;;;;;;;;;;21.58;105.63;;;;;;2670178;76;22374;-93
2023/05/04 13:17:19;;;;;;;;;;;21.90;106.24;;;;;;2670814;76;20470;-93
2023/05/04 13:20:52;;;;;;;;;;;22.07;106.29;;;;;;2670280;76;20405;-92
2023/05/04 13:24:20;;;;;;;;;;;22.11;105.62;;;;;;2671802;76;20467;-91
2023/05/04 13:27:48;;;;;;;;;;;22.10;105.32;;;;;;2670372;76;20427;-92
2023/05/04 13:31:17;;;;;;;;;;;22.09;104.65;;;;;;2669766;76;21275;-92
2023/05/04 13:34:45;;;;;;;;;;;22.52;104.57;;;;;;2670028;76;21042;-91
2023/05/04 13:38:16;;;;;;;;;;;22.77;103.55;;;;;;2670287;76;20443;-92
2023/05/04 13:41:49;;;;;;;;;;;23.18;102.56;;;;;;2670841;76;20444;-91
2023/05/04 13:45:19;;;;;;;;;;;23.44;101.33;;;;;;2668257;76;20465;-91
2023/05/04 13:48:47;;;;;;;;;;;23.47;99.45;;;;;;2668995;76;20469;-92
2023/05/04 13:52:18;;;;;;;;;;;23.57;98.77;;;;;;2668543;76;20469;-92
2023/05/04 13:55:46;;;;;;;;;;;23.89;98.19;;;;;;2669323;76;20482;-92
2023/05/04 13:59:14;;;;;;;;;;;24.08;98.45;;;;;;2668436;76;20949;-92
2023/05/04 14:02:44;;;;;;;;;;;24.34;98.16;;;;;;2668830;76;20474;-93
2023/05/04 14:06:13;;;;;;;;;;;24.56;97.36;;;;;;2669535;76;20625;-95
2023/05/04 14:09:44;;;;;;;;;;;24.75;98.52;;;;;;2673455;76;20462;-95
2023/05/04 14:13:18;;;;;;;;;;;24.76;98.43;;;;;;2670873;76;20417;-93
2023/05/04 14:16:59;;;;;;;;;;;25.01;97.52;;;;;;2670434;76;20442;-94
2023/05/04 14:20:31;;;;;;;;;;;25.24;96.36;;;;;;2671323;76;20445;-89
2023/05/04 14:23:59;;;;;;;;;;;26.66;95.57;;;;;;2669675;76;20454;-93
2023/05/04 14:27:33;;;;;;;;;;;28.80;92.27;;;;;;2670243;76;20616;-91
2023/05/04 14:31:07;;;;;;;;;;;29.50;90.18;;;;;;2669807;76;20436;-93
2023/05/04 14:34:32;;;;;;;;;;;30.36;86.78;;;;;;2671762;76;20432;-93
2023/05/04 14:38:03;;;;;;;;;;;29.02;86.03;;;;;;2672610;76;20872;-90
2023/05/04 14:41:36;;;;;;;;;;;30.21;85.20;;;;;;2671026;76;20458;-91
2023/05/04 14:45:01;;;;;;;;;;;29.95;85.03;;;;;;2671524;76;20426;-92
2023/05/04 14:48:29;;;;;;;;;;;29.53;84.66;;;;;;2673014;76;20415;-91
2023/05/04 14:51:59;;;;;;;;;;;29.59;86.12;;;;;;2671426;76;20418;-93
2023/05/04 14:55:27;;;;;;;;;;;29.57;84.65;;;;;;2671436;76;20883;-93
2023/05/04 14:58:56;;;;;;;;;;;29.67;84.48;;;;;;2670918;76;20443;-93
2023/05/04 15:02:24;;;;;;;;;;;29.13;83.23;;;;;;2670108;76;20430;-93
2023/05/04 15:05:52;;;;;;;;;;;28.56;84.64;;;;;;2667828;76;20445;-92
2023/05/04 15:09:20;;;;;;;;;;;28.18;84.77;;;;;;2669886;76;20313;-91
2023/05/04 15:12:51;;;;;;;;;;;28.42;83.42;;;;;;2670158;76;20411;-92
2023/05/04 15:16:19;;;;;;;;;;;29.04;81.96;;;;;;2670666;76;20438;-92
2023/05/04 15:19:47;;;;;;;;;;;29.09;81.04;;;;;;2673017;76;20870;-93
2023/05/04 15:23:16;;;;;;;;;;;29.22;80.69;;;;;;2670878;76;20453;-93
2023/05/04 15:26:44;;;;;;;;;;;29.15;80.89;;;;;;2669565;76;20422;-92
2023/05/04 15:30:12;;;;;;;;;;;28.92;80.73;;;;;;2670146;76;20457;-92
2023/05/04 15:33:40;;;;;;;;;;;28.45;79.83;;;;;;2670312;76;20415;-93
2023/05/04 15:37:10;;;;;;;;;;;28.79;79.72;;;;;;2669513;76;20455;-93
2023/05/04 15:40:41;;;;;;;;;;;28.91;78.89;;;;;;2669606;76;20450;-93
2023/05/04 15:44:09;;;;;;;;;;;28.72;78.88;;;;;;2669295;76;20457;-93
2023/05/04 15:47:38;;;;;;;;;;;28.97;79.11;;;;;;2670280;76;20299;-93
2023/05/04 15:51:06;;;;;;;;;;;29.13;78.98;;;;;;2671580;76;20301;-93
2023/05/04 15:54:34;;;;;;;;;;;29.30;79.53;;;;;;2669895;76;20898;-93
2023/05/04 15:58:04;;;;;;;;;;;28.61;78.43;;;;;;2671030;76;20895;-93
2023/05/04 16:01:37;;;;;;;;;;;28.40;77.55;;;;;;2672449;76;20414;-93
2023/05/04 16:05:05;;;;;;;;;;;29.00;77.76;;;;;;2672206;76;20428;-93
2023/05/04 16:08:33;;;;;;;;;;;29.30;77.19;;;;;;2671865;76;20427;-93
2023/05/04 16:12:03;;;;;;;;;;;29.81;76.30;;;;;;2671951;76;20409;-93
2023/05/04 16:15:31;;;;;;;;;;;31.07;74.54;;;;;;2672036;76;20345;-93
2023/05/04 16:18:59;;;;;;;;;;;33.59;71.27;;;;;;2672275;76;20412;-93
2023/05/04 16:22:28;;;;;;;;;;;34.00;68.18;;;;;;2671601;76;20407;-94
2023/05/04 16:25:56;;;;;;;;;;;34.91;67.12;;;;;;2671613;76;20483;-93
2023/05/04 16:29:24;;;;;;;;;;;34.69;65.42;;;;;;2671674;76;20311;-93
2023/05/04 16:32:52;;;;;;;;;;;33.26;65.70;;;;;;2672092;76;21023;-91
2023/05/04 16:36:20;;;;;;;;;;;33.40;65.83;;;;;;2669502;76;20430;-93
2023/05/04 16:39:49;;;;;;;;;;;32.48;66.45;;;;;;2668579;76;20447;-93
2023/05/04 16:43:17;;;;;;;;;;;31.70;68.20;;;;;;2670913;76;20455;-93
2023/05/04 16:46:45;;;;;;;;;;;30.74;69.64;;;;;;2670046;76;20425;-93
2023/05/04 16:50:13;;;;;;;;;;;29.31;70.64;;;;;;2671521;76;20453;-92
2023/05/04 16:53:42;;;;;;;;;;;28.72;71.17;;;;;;2671385;76;20425;-93
2023/05/04 16:57:10;;;;;;;;;;;28.05;71.81;;;;;;2670947;76;20436;-93
2023/05/04 17:00:38;;;;;;;;;;;28.68;72.24;;;;;;2671052;76;20892;-93
2023/05/04 17:04:07;;;;;;;;;;;30.13;71.00;;;;;;2670695;76;20547;-92
2023/05/04 17:07:36;;;;;;;;;;;28.40;71.60;;;;;;2670977;76;20429;-94
2023/05/04 17:11:04;;;;;;;;;;;27.88;73.09;;;;;;2671080;76;20426;-93
2023/05/04 17:14:38;;;;;;;;;;;27.95;73.35;;;;;;2670980;76;20460;-93
2023/05/04 17:18:03;;;;;;;;;;;27.01;74.15;;;;;;2671090;76;20894;-93
2023/05/04 17:21:31;;;;;;;;;;;26.87;75.05;;;;;;2670336;76;20465;-93
2023/05/04 17:24:59;;;;;;;;;;;25.77;76.81;;;;;;2671052;76;20434;-93
2023/05/04 17:28:28;;;;;;;;;;;24.11;79.17;;;;;;2669498;76;20446;-93
2023/05/04 17:31:56;;;;;;;;;;;23.10;81.53;;;;;;2669343;76;20464;-93
2023/05/04 17:35:25;;;;;;;;;;;22.32;83.45;;;;;;2669920;76;20416;-93
2023/05/04 17:38:53;;;;;;;;;;;21.68;84.77;;;;;;2669847;76;20459;-90
2023/05/04 17:42:21;;;;;;;;;;;21.08;86.25;;;;;;2670498;76;20756;-90
2023/05/04 17:45:49;;;;;;;;;;;20.71;87.90;;;;;;2670247;76;20449;-90
2023/05/04 17:49:20;;;;;;;;;;;20.25;89.15;;;;;;2670422;76;20474;-90
2023/05/04 17:52:48;;;;;;;;;;;19.84;90.47;;;;;;2671048;76;20455;-90
2023/05/04 17:56:18;;;;;;;;;;;19.56;91.08;;;;;;2669842;76;20473;-90
2023/05/04 17:59:46;;;;;;;;;;;19.21;92.14;;;;;;2671355;76;20452;-90
2023/05/04 18:03:15;;;;;;;;;;;18.96;92.93;;;;;;2669584;76;20462;-90
2023/05/04 18:06:43;;;;;;;;;;;18.66;93.57;;;;;;2669351;76;20413;-90
2023/05/04 18:10:11;;;;;;;;;;;18.35;94.53;;;;;;2670704;76;20825;-91
2023/05/04 18:13:39;;;;;;;;;;;18.07;95.32;;;;;;2671347;76;20460;-90
2023/05/04 18:17:07;;;;;;;;;;;17.77;96.06;;;;;;2669393;76;20471;-93
2023/05/04 18:20:35;;;;;;;;;;;17.46;97.13;;;;;;2668823;76;20455;-93
2023/05/04 18:24:03;;;;;;;;;;;17.26;98.30;;;;;;2669292;76;20304;-93
2023/05/04 18:27:32;;;;;;;;;;;17.02;99.06;;;;;;2668842;76;20958;-93
2023/05/04 18:31:00;;;;;;;;;;;16.79;99.87;;;;;;2668319;76;20890;-92
2023/05/04 18:34:28;;;;;;;;;;;16.60;100.23;;;;;;2669733;76;20446;-93
2023/05/04 18:37:56;;;;;;;;;;;16.41;100.51;;;;;;2670267;76;20686;-93
2023/05/04 18:41:25;;;;;;;;;;;16.22;100.86;;;;;;2669760;76;20407;-93
2023/05/04 18:44:53;;;;;;;;;;;16.05;101.04;;;;;;2671088;76;20995;-93
2023/05/04 18:48:24;;;;;;;;;;;15.90;101.61;;;;;;2670539;76;20865;-92
2023/05/04 18:51:52;;;;;;;;;;;15.75;102.55;;;;;;2669993;76;20446;-93
2023/05/04 18:55:20;;;;;;;;;;;15.62;103.27;;;;;;2674638;76;20397;-92
2023/05/04 18:58:48;;;;;;;;;;;15.48;103.55;;;;;;2667780;76;20416;-92
2023/05/04 19:02:16;;;;;;;;;;;15.38;104.35;;;;;;2669651;76;21040;-93
2023/05/04 19:05:44;;;;;;;;;;;15.25;104.66;;;;;;2668933;76;20432;-93
2023/05/04 19:09:13;;;;;;;;;;;15.12;105.00;;;;;;2667689;76;20460;-93
2023/05/04 19:12:44;;;;;;;;;;;15.01;104.78;;;;;;2667766;76;20928;-93
2023/05/04 19:16:13;;;;;;;;;;;14.89;104.63;;;;;;2668978;76;20422;-93
2023/05/04 19:19:41;;;;;;;;;;;14.80;104.84;;;;;;2669870;76;20472;-93
2023/05/04 19:23:09;;;;;;;;;;;14.69;105.11;;;;;;2669628;76;20930;-93
2023/05/04 19:26:38;;;;;;;;;;;14.60;105.48;;;;;;2672007;76;21002;-93
2023/05/04 19:30:06;;;;;;;;;;;14.50;105.83;;;;;;2673149;76;20302;-93
2023/05/04 19:33:35;;;;;;;;;;;14.49;105.95;;;;;;2669906;76;20390;-91
2023/05/04 19:37:03;;;;;;;;;;;14.45;106.22;;;;;;2670341;76;20444;-90
2023/05/04 19:40:31;;;;;;;;;;;14.39;106.54;;;;;;2670584;76;20431;-91
2023/05/04 19:43:59;;;;;;;;;;;14.28;106.85;;;;;;2670557;76;20423;-91
2023/05/04 19:47:28;;;;;;;;;;;14.24;107.29;;;;;;2670628;76;20487;-92
2023/05/04 19:50:56;;;;;;;;;;;14.18;107.58;;;;;;2669515;76;20443;-91
2023/05/04 19:54:24;;;;;;;;;;;14.06;107.63;;;;;;2669966;76;20487;-91
2023/05/04 19:57:52;;;;;;;;;;;13.96;107.71;;;;;;2669556;76;20426;-91
2023/05/04 20:01:21;;;;;;;;;;;13.88;107.78;;;;;;2669632;76;20406;-90
2023/05/04 20:04:50;;;;;;;;;;;13.81;108.17;;;;;;2670730;76;20811;-91
2023/05/04 20:08:18;;;;;;;;;;;13.73;108.43;;;;;;2670064;76;20420;-91
2023/05/04 20:11:46;;;;;;;;;;;13.65;108.56;;;;;;2670014;76;20420;-91
2023/05/04 20:15:14;;;;;;;;;;;13.56;108.82;;;;;;2670573;76;20399;-91